sensor_id;sensor_type;location;lat;lon;timestamp;P1;durP1;ratioP1;P2;durP2;ratioP2
78197;SDS011;67472;51.554;7.812;2023-04-08T00:00:15;10.48;;;8.73;;
78197;SDS011;67472;51.554;7.812;2023-04-08T00:03:01;9.57;;;8.50;;
78197;SDS011;67472;51.554;7.812;2023-04-08T00:05:46;10.55;;;9.18;;
78197;SDS011;67472;51.554;7.812;2023-04-08T00:08:31;11.70;;;9.57;;
78197;SDS011;67472;51.554;7.812;2023-04-08T00:11:16;13.32;;;8.82;;
78197;SDS011;67472;51.554;7.812;2023-04-08T00:14:01;12.68;;;9.38;;
78197;SDS011;67472;51.554;7.812;2023-04-08T00:16:47;19.08;;;7.45;;
78197;SDS011;67472;51.554;7.812;2023-04-08T00:19:33;15.52;;;8.63;;
78197;SDS011;67472;51.554;7.812;2023-04-08T00:22:18;29.52;;;9.43;;
78197;SDS011;67472;51.554;7.812;2023-04-08T00:25:03;9.32;;;8.35;;
78197;SDS011;67472;51.554;7.812;2023-04-08T00:27:53;9.57;;;7.97;;
78197;SDS011;67472;51.554;7.812;2023-04-08T00:30:38;9.85;;;8.73;;
78197;SDS011;67472;51.554;7.812;2023-04-08T00:33:22;9.60;;;8.48;;
78197;SDS011;67472;51.554;7.812;2023-04-08T00:36:09;10.18;;;9.13;;
78197;SDS011;67472;51.554;7.812;2023-04-08T00:38:54;10.80;;;9.70;;
78197;SDS011;67472;51.554;7.812;2023-04-08T00:41:40;10.35;;;9.05;;
78197;SDS011;67472;51.554;7.812;2023-04-08T00:44:24;14.38;;;9.85;;
78197;SDS011;67472;51.554;7.812;2023-04-08T00:47:13;10.30;;;8.98;;
78197;SDS011;67472;51.554;7.812;2023-04-08T00:49:59;10.10;;;8.65;;
78197;SDS011;67472;51.554;7.812;2023-04-08T00:52:44;11.15;;;10.05;;
78197;SDS011;67472;51.554;7.812;2023-04-08T00:55:29;11.27;;;10.18;;
78197;SDS011;67472;51.554;7.812;2023-04-08T00:58:15;14.60;;;10.65;;
78197;SDS011;67472;51.554;7.812;2023-04-08T01:01:06;15.70;;;12.52;;
78197;SDS011;67472;51.554;7.812;2023-04-08T01:09:38;15.73;;;12.70;;
78197;SDS011;67472;51.554;7.812;2023-04-08T01:12:31;19.55;;;14.40;;
78197;SDS011;67472;51.554;7.812;2023-04-08T01:15:20;22.02;;;14.15;;
78197;SDS011;67472;51.554;7.812;2023-04-08T01:18:07;18.67;;;14.27;;
78197;SDS011;67472;51.554;7.812;2023-04-08T01:20:55;22.45;;;15.10;;
78197;SDS011;67472;51.554;7.812;2023-04-08T01:23:52;25.60;;;17.27;;
78197;SDS011;67472;51.554;7.812;2023-04-08T01:26:43;29.70;;;17.30;;
78197;SDS011;67472;51.554;7.812;2023-04-08T01:29:29;28.27;;;16.60;;
78197;SDS011;67472;51.554;7.812;2023-04-08T01:32:15;21.23;;;16.13;;
78197;SDS011;67472;51.554;7.812;2023-04-08T01:35:01;24.05;;;15.48;;
78197;SDS011;67472;51.554;7.812;2023-04-08T01:37:47;24.67;;;15.68;;
78197;SDS011;67472;51.554;7.812;2023-04-08T01:40:34;32.40;;;18.38;;
78197;SDS011;67472;51.554;7.812;2023-04-08T01:43:22;22.58;;;16.67;;
78197;SDS011;67472;51.554;7.812;2023-04-08T01:46:09;34.42;;;16.02;;
78197;SDS011;67472;51.554;7.812;2023-04-08T01:48:56;18.83;;;14.25;;
78197;SDS011;67472;51.554;7.812;2023-04-08T01:51:42;22.05;;;14.45;;
78197;SDS011;67472;51.554;7.812;2023-04-08T01:54:29;20.27;;;14.02;;
78197;SDS011;67472;51.554;7.812;2023-04-08T01:57:16;22.27;;;14.38;;
78197;SDS011;67472;51.554;7.812;2023-04-08T02:00:09;20.20;;;15.13;;
78197;SDS011;67472;51.554;7.812;2023-04-08T02:03:05;21.65;;;15.63;;
78197;SDS011;67472;51.554;7.812;2023-04-08T02:05:53;24.88;;;15.50;;
78197;SDS011;67472;51.554;7.812;2023-04-08T02:08:38;21.13;;;15.82;;
78197;SDS011;67472;51.554;7.812;2023-04-08T02:11:23;20.13;;;15.43;;
78197;SDS011;67472;51.554;7.812;2023-04-08T02:14:09;21.50;;;16.23;;
78197;SDS011;67472;51.554;7.812;2023-04-08T02:16:55;23.50;;;17.75;;
78197;SDS011;67472;51.554;7.812;2023-04-08T02:22:47;23.38;;;18.67;;
78197;SDS011;67472;51.554;7.812;2023-04-08T02:25:34;33.80;;;19.10;;
78197;SDS011;67472;51.554;7.812;2023-04-08T02:28:22;32.55;;;20.08;;
78197;SDS011;67472;51.554;7.812;2023-04-08T02:31:09;37.22;;;20.48;;
78197;SDS011;67472;51.554;7.812;2023-04-08T02:34:03;28.98;;;19.33;;
78197;SDS011;67472;51.554;7.812;2023-04-08T02:36:50;51.78;;;21.75;;
78197;SDS011;67472;51.554;7.812;2023-04-08T02:39:36;39.50;;;20.77;;
78197;SDS011;67472;51.554;7.812;2023-04-08T02:42:21;52.75;;;22.70;;
78197;SDS011;67472;51.554;7.812;2023-04-08T02:45:06;53.85;;;24.05;;
78197;SDS011;67472;51.554;7.812;2023-04-08T02:47:51;29.20;;;20.73;;
78197;SDS011;67472;51.554;7.812;2023-04-08T02:50:36;41.08;;;21.23;;
78197;SDS011;67472;51.554;7.812;2023-04-08T02:53:22;31.35;;;20.35;;
78197;SDS011;67472;51.554;7.812;2023-04-08T02:56:10;40.30;;;20.73;;
78197;SDS011;67472;51.554;7.812;2023-04-08T02:58:55;30.95;;;19.88;;
78197;SDS011;67472;51.554;7.812;2023-04-08T03:01:41;41.80;;;19.80;;
78197;SDS011;67472;51.554;7.812;2023-04-08T03:04:26;35.05;;;20.23;;
78197;SDS011;67472;51.554;7.812;2023-04-08T03:07:11;29.85;;;19.38;;
78197;SDS011;67472;51.554;7.812;2023-04-08T03:09:56;45.25;;;20.77;;
78197;SDS011;67472;51.554;7.812;2023-04-08T03:12:41;36.88;;;19.67;;
78197;SDS011;67472;51.554;7.812;2023-04-08T03:15:26;25.35;;;19.55;;
78197;SDS011;67472;51.554;7.812;2023-04-08T03:18:14;26.55;;;19.15;;
78197;SDS011;67472;51.554;7.812;2023-04-08T03:20:59;40.22;;;18.73;;
78197;SDS011;67472;51.554;7.812;2023-04-08T03:23:44;28.38;;;20.05;;
78197;SDS011;67472;51.554;7.812;2023-04-08T03:26:30;27.77;;;19.05;;
78197;SDS011;67472;51.554;7.812;2023-04-08T03:29:14;34.75;;;20.48;;
78197;SDS011;67472;51.554;7.812;2023-04-08T03:31:59;48.70;;;24.45;;
78197;SDS011;67472;51.554;7.812;2023-04-08T03:34:44;34.65;;;23.55;;
78197;SDS011;67472;51.554;7.812;2023-04-08T03:37:29;42.60;;;22.23;;
78197;SDS011;67472;51.554;7.812;2023-04-08T03:40:14;47.50;;;23.13;;
78197;SDS011;67472;51.554;7.812;2023-04-08T03:42:59;48.95;;;23.73;;
78197;SDS011;67472;51.554;7.812;2023-04-08T03:45:44;42.22;;;22.95;;
78197;SDS011;67472;51.554;7.812;2023-04-08T03:48:29;55.78;;;24.38;;
78197;SDS011;67472;51.554;7.812;2023-04-08T03:51:15;57.83;;;24.77;;
78197;SDS011;67472;51.554;7.812;2023-04-08T03:54:00;46.05;;;26.48;;
78197;SDS011;67472;51.554;7.812;2023-04-08T03:56:45;59.95;;;28.25;;
78197;SDS011;67472;51.554;7.812;2023-04-08T03:59:30;64.60;;;27.67;;
78197;SDS011;67472;51.554;7.812;2023-04-08T04:02:17;57.40;;;28.55;;
78197;SDS011;67472;51.554;7.812;2023-04-08T04:05:02;83.28;;;28.92;;
78197;SDS011;67472;51.554;7.812;2023-04-08T04:07:48;56.65;;;29.90;;
78197;SDS011;67472;51.554;7.812;2023-04-08T04:10:33;87.15;;;29.90;;
78197;SDS011;67472;51.554;7.812;2023-04-08T04:13:18;46.90;;;27.75;;
78197;SDS011;67472;51.554;7.812;2023-04-08T04:16:03;43.75;;;27.42;;
78197;SDS011;67472;51.554;7.812;2023-04-08T04:18:48;34.63;;;24.00;;
78197;SDS011;67472;51.554;7.812;2023-04-08T04:21:33;50.40;;;25.15;;
78197;SDS011;67472;51.554;7.812;2023-04-08T04:24:18;33.42;;;23.73;;
78197;SDS011;67472;51.554;7.812;2023-04-08T04:27:03;40.00;;;25.05;;
78197;SDS011;67472;51.554;7.812;2023-04-08T04:29:48;40.85;;;23.30;;
78197;SDS011;67472;51.554;7.812;2023-04-08T04:32:33;57.17;;;23.90;;
78197;SDS011;67472;51.554;7.812;2023-04-08T04:35:18;63.00;;;26.00;;
78197;SDS011;67472;51.554;7.812;2023-04-08T04:38:02;48.63;;;26.10;;
78197;SDS011;67472;51.554;7.812;2023-04-08T04:40:49;52.08;;;24.98;;
78197;SDS011;67472;51.554;7.812;2023-04-08T04:43:34;44.85;;;24.77;;
78197;SDS011;67472;51.554;7.812;2023-04-08T04:46:19;43.53;;;24.35;;
78197;SDS011;67472;51.554;7.812;2023-04-08T04:49:04;49.38;;;25.95;;
78197;SDS011;67472;51.554;7.812;2023-04-08T04:51:49;48.88;;;25.75;;
78197;SDS011;67472;51.554;7.812;2023-04-08T04:54:34;67.00;;;30.23;;
78197;SDS011;67472;51.554;7.812;2023-04-08T04:57:19;80.68;;;33.28;;
78197;SDS011;67472;51.554;7.812;2023-04-08T05:00:04;66.38;;;35.15;;
78197;SDS011;67472;51.554;7.812;2023-04-08T05:02:51;61.85;;;35.90;;
78197;SDS011;67472;51.554;7.812;2023-04-08T05:05:37;56.50;;;35.85;;
78197;SDS011;67472;51.554;7.812;2023-04-08T05:08:22;47.78;;;34.17;;
78197;SDS011;67472;51.554;7.812;2023-04-08T05:11:10;47.88;;;32.33;;
78197;SDS011;67472;51.554;7.812;2023-04-08T05:13:55;43.30;;;32.55;;
78197;SDS011;67472;51.554;7.812;2023-04-08T05:16:40;42.63;;;30.65;;
78197;SDS011;67472;51.554;7.812;2023-04-08T05:19:25;39.63;;;29.77;;
78197;SDS011;67472;51.554;7.812;2023-04-08T05:22:10;39.25;;;29.17;;
78197;SDS011;67472;51.554;7.812;2023-04-08T05:24:55;37.25;;;27.17;;
78197;SDS011;67472;51.554;7.812;2023-04-08T05:27:40;35.35;;;27.63;;
78197;SDS011;67472;51.554;7.812;2023-04-08T05:30:25;37.08;;;27.02;;
78197;SDS011;67472;51.554;7.812;2023-04-08T05:33:10;31.85;;;26.35;;
78197;SDS011;67472;51.554;7.812;2023-04-08T05:35:55;34.90;;;25.33;;
78197;SDS011;67472;51.554;7.812;2023-04-08T05:38:40;33.08;;;25.80;;
78197;SDS011;67472;51.554;7.812;2023-04-08T05:41:27;35.08;;;28.50;;
78197;SDS011;67472;51.554;7.812;2023-04-08T05:44:13;36.80;;;28.63;;
78197;SDS011;67472;51.554;7.812;2023-04-08T05:46:57;35.85;;;27.17;;
78197;SDS011;67472;51.554;7.812;2023-04-08T05:49:43;35.65;;;27.73;;
78197;SDS011;67472;51.554;7.812;2023-04-08T05:52:28;34.33;;;27.48;;
78197;SDS011;67472;51.554;7.812;2023-04-08T05:55:13;33.38;;;26.92;;
78197;SDS011;67472;51.554;7.812;2023-04-08T05:57:58;34.25;;;28.45;;
78197;SDS011;67472;51.554;7.812;2023-04-08T06:00:43;35.17;;;26.77;;
78197;SDS011;67472;51.554;7.812;2023-04-08T06:03:29;33.83;;;27.33;;
78197;SDS011;67472;51.554;7.812;2023-04-08T06:06:14;32.25;;;25.27;;
78197;SDS011;67472;51.554;7.812;2023-04-08T06:08:59;32.90;;;25.55;;
78197;SDS011;67472;51.554;7.812;2023-04-08T06:11:43;30.73;;;25.08;;
78197;SDS011;67472;51.554;7.812;2023-04-08T06:14:30;28.55;;;23.95;;
78197;SDS011;67472;51.554;7.812;2023-04-08T06:17:15;30.27;;;23.83;;
78197;SDS011;67472;51.554;7.812;2023-04-08T06:20:01;30.50;;;23.77;;
78197;SDS011;67472;51.554;7.812;2023-04-08T06:22:46;26.58;;;21.92;;
78197;SDS011;67472;51.554;7.812;2023-04-08T06:25:31;27.42;;;22.25;;
78197;SDS011;67472;51.554;7.812;2023-04-08T06:28:16;25.40;;;21.02;;
78197;SDS011;67472;51.554;7.812;2023-04-08T06:31:01;24.13;;;20.05;;
78197;SDS011;67472;51.554;7.812;2023-04-08T06:33:46;24.08;;;19.88;;
78197;SDS011;67472;51.554;7.812;2023-04-08T06:36:31;26.67;;;21.40;;
78197;SDS011;67472;51.554;7.812;2023-04-08T06:39:16;29.90;;;21.60;;
78197;SDS011;67472;51.554;7.812;2023-04-08T06:42:03;26.10;;;20.58;;
78197;SDS011;67472;51.554;7.812;2023-04-08T06:45:03;23.85;;;19.58;;
78197;SDS011;67472;51.554;7.812;2023-04-08T06:47:48;22.27;;;18.00;;
78197;SDS011;67472;51.554;7.812;2023-04-08T06:50:33;22.40;;;16.90;;
78197;SDS011;67472;51.554;7.812;2023-04-08T06:53:18;18.92;;;15.48;;
78197;SDS011;67472;51.554;7.812;2023-04-08T06:56:03;18.35;;;16.05;;
78197;SDS011;67472;51.554;7.812;2023-04-08T06:58:48;21.80;;;16.20;;
78197;SDS011;67472;51.554;7.812;2023-04-08T07:01:34;23.23;;;17.90;;
78197;SDS011;67472;51.554;7.812;2023-04-08T07:04:19;19.90;;;16.35;;
78197;SDS011;67472;51.554;7.812;2023-04-08T07:07:04;19.13;;;16.63;;
78197;SDS011;67472;51.554;7.812;2023-04-08T07:09:49;22.20;;;17.00;;
78197;SDS011;67472;51.554;7.812;2023-04-08T07:12:35;18.92;;;15.75;;
78197;SDS011;67472;51.554;7.812;2023-04-08T07:15:20;18.25;;;14.95;;
78197;SDS011;67472;51.554;7.812;2023-04-08T07:18:05;17.42;;;15.35;;
78197;SDS011;67472;51.554;7.812;2023-04-08T07:20:51;20.05;;;15.40;;
78197;SDS011;67472;51.554;7.812;2023-04-08T07:23:37;17.52;;;14.20;;
78197;SDS011;67472;51.554;7.812;2023-04-08T07:26:22;19.08;;;14.50;;
78197;SDS011;67472;51.554;7.812;2023-04-08T07:29:07;20.00;;;14.90;;
78197;SDS011;67472;51.554;7.812;2023-04-08T07:31:52;18.70;;;14.75;;
78197;SDS011;67472;51.554;7.812;2023-04-08T07:34:37;17.70;;;14.50;;
78197;SDS011;67472;51.554;7.812;2023-04-08T07:37:22;16.33;;;13.38;;
78197;SDS011;67472;51.554;7.812;2023-04-08T07:40:07;16.60;;;13.68;;
78197;SDS011;67472;51.554;7.812;2023-04-08T07:42:53;18.45;;;15.20;;
78197;SDS011;67472;51.554;7.812;2023-04-08T07:45:38;15.95;;;13.70;;
78197;SDS011;67472;51.554;7.812;2023-04-08T07:48:23;19.52;;;14.50;;
78197;SDS011;67472;51.554;7.812;2023-04-08T07:51:08;15.85;;;12.80;;
78197;SDS011;67472;51.554;7.812;2023-04-08T07:53:54;19.35;;;13.13;;
78197;SDS011;67472;51.554;7.812;2023-04-08T07:56:39;17.17;;;13.88;;
78197;SDS011;67472;51.554;7.812;2023-04-08T07:59:24;19.40;;;13.88;;
78197;SDS011;67472;51.554;7.812;2023-04-08T08:02:09;18.15;;;13.40;;
78197;SDS011;67472;51.554;7.812;2023-04-08T08:04:54;17.50;;;14.32;;
78197;SDS011;67472;51.554;7.812;2023-04-08T08:07:39;16.58;;;13.32;;
78197;SDS011;67472;51.554;7.812;2023-04-08T08:10:24;21.02;;;14.93;;
78197;SDS011;67472;51.554;7.812;2023-04-08T08:13:10;16.42;;;13.55;;
78197;SDS011;67472;51.554;7.812;2023-04-08T08:15:58;13.15;;;11.15;;
78197;SDS011;67472;51.554;7.812;2023-04-08T08:18:43;16.33;;;12.30;;
78197;SDS011;67472;51.554;7.812;2023-04-08T08:21:28;17.63;;;12.65;;
78197;SDS011;67472;51.554;7.812;2023-04-08T08:24:13;14.63;;;12.13;;
78197;SDS011;67472;51.554;7.812;2023-04-08T08:27:00;14.77;;;11.55;;
78197;SDS011;67472;51.554;7.812;2023-04-08T08:29:47;14.80;;;12.30;;
78197;SDS011;67472;51.554;7.812;2023-04-08T08:32:33;16.35;;;12.40;;
78197;SDS011;67472;51.554;7.812;2023-04-08T08:35:18;18.60;;;13.35;;
78197;SDS011;67472;51.554;7.812;2023-04-08T08:38:03;15.00;;;12.00;;
78197;SDS011;67472;51.554;7.812;2023-04-08T08:40:52;15.43;;;11.32;;
78197;SDS011;67472;51.554;7.812;2023-04-08T08:43:39;13.77;;;11.88;;
78197;SDS011;67472;51.554;7.812;2023-04-08T08:46:24;15.23;;;10.98;;
78197;SDS011;67472;51.554;7.812;2023-04-08T08:49:09;13.75;;;11.18;;
78197;SDS011;67472;51.554;7.812;2023-04-08T08:51:55;14.23;;;11.05;;
78197;SDS011;67472;51.554;7.812;2023-04-08T08:54:42;14.57;;;11.35;;
78197;SDS011;67472;51.554;7.812;2023-04-08T08:57:27;12.63;;;10.07;;
78197;SDS011;67472;51.554;7.812;2023-04-08T09:00:12;14.30;;;10.70;;
78197;SDS011;67472;51.554;7.812;2023-04-08T09:03:19;13.10;;;10.07;;
78197;SDS011;67472;51.554;7.812;2023-04-08T09:06:05;12.15;;;9.27;;
78197;SDS011;67472;51.554;7.812;2023-04-08T09:08:50;13.63;;;10.98;;
78197;SDS011;67472;51.554;7.812;2023-04-08T09:11:39;16.02;;;11.75;;
78197;SDS011;67472;51.554;7.812;2023-04-08T09:14:25;17.20;;;12.10;;
78197;SDS011;67472;51.554;7.812;2023-04-08T09:17:10;13.95;;;11.48;;
78197;SDS011;67472;51.554;7.812;2023-04-08T09:20:06;16.08;;;11.70;;
78197;SDS011;67472;51.554;7.812;2023-04-08T09:25:44;15.90;;;12.07;;
78197;SDS011;67472;51.554;7.812;2023-04-08T09:28:29;17.02;;;11.98;;
78197;SDS011;67472;51.554;7.812;2023-04-08T09:31:19;16.13;;;12.68;;
78197;SDS011;67472;51.554;7.812;2023-04-08T09:34:14;15.13;;;12.23;;
78197;SDS011;67472;51.554;7.812;2023-04-08T09:37:01;16.40;;;12.35;;
78197;SDS011;67472;51.554;7.812;2023-04-08T09:39:46;17.77;;;13.55;;
78197;SDS011;67472;51.554;7.812;2023-04-08T09:42:32;18.25;;;12.95;;
78197;SDS011;67472;51.554;7.812;2023-04-08T09:45:20;18.58;;;13.35;;
78197;SDS011;67472;51.554;7.812;2023-04-08T09:48:11;13.75;;;11.63;;
78197;SDS011;67472;51.554;7.812;2023-04-08T09:50:59;16.50;;;12.23;;
78197;SDS011;67472;51.554;7.812;2023-04-08T09:53:46;15.05;;;12.15;;
78197;SDS011;67472;51.554;7.812;2023-04-08T09:56:35;16.45;;;12.85;;
78197;SDS011;67472;51.554;7.812;2023-04-08T09:59:42;15.82;;;12.85;;
78197;SDS011;67472;51.554;7.812;2023-04-08T10:02:33;18.00;;;13.98;;
78197;SDS011;67472;51.554;7.812;2023-04-08T10:05:24;20.92;;;14.60;;
78197;SDS011;67472;51.554;7.812;2023-04-08T10:08:10;16.85;;;13.77;;
78197;SDS011;67472;51.554;7.812;2023-04-08T10:10:56;19.92;;;14.75;;
78197;SDS011;67472;51.554;7.812;2023-04-08T10:13:42;22.05;;;16.65;;
78197;SDS011;67472;51.554;7.812;2023-04-08T10:16:27;25.35;;;16.27;;
78197;SDS011;67472;51.554;7.812;2023-04-08T10:30:55;24.10;;;15.40;;
78197;SDS011;67472;51.554;7.812;2023-04-08T10:33:40;17.00;;;14.10;;
78197;SDS011;67472;51.554;7.812;2023-04-08T10:36:25;21.48;;;16.90;;
78197;SDS011;67472;51.554;7.812;2023-04-08T10:39:11;25.33;;;17.98;;
78197;SDS011;67472;51.554;7.812;2023-04-08T10:41:57;21.15;;;15.73;;
78197;SDS011;67472;51.554;7.812;2023-04-08T10:44:46;20.30;;;16.65;;
78197;SDS011;67472;51.554;7.812;2023-04-08T10:47:31;21.60;;;16.17;;
78197;SDS011;67472;51.554;7.812;2023-04-08T10:50:17;21.63;;;16.42;;
78197;SDS011;67472;51.554;7.812;2023-04-08T10:53:04;26.05;;;18.27;;
78197;SDS011;67472;51.554;7.812;2023-04-08T10:55:49;20.45;;;16.48;;
78197;SDS011;67472;51.554;7.812;2023-04-08T10:58:35;25.35;;;17.75;;
78197;SDS011;67472;51.554;7.812;2023-04-08T11:01:41;27.25;;;18.10;;
78197;SDS011;67472;51.554;7.812;2023-04-08T11:04:28;24.75;;;17.60;;
78197;SDS011;67472;51.554;7.812;2023-04-08T11:07:13;28.98;;;17.60;;
78197;SDS011;67472;51.554;7.812;2023-04-08T11:10:01;22.95;;;16.45;;
78197;SDS011;67472;51.554;7.812;2023-04-08T11:12:47;24.23;;;17.02;;
78197;SDS011;67472;51.554;7.812;2023-04-08T11:15:34;23.27;;;16.48;;
78197;SDS011;67472;51.554;7.812;2023-04-08T11:18:20;23.73;;;15.57;;
78197;SDS011;67472;51.554;7.812;2023-04-08T11:21:09;19.90;;;14.90;;
78197;SDS011;67472;51.554;7.812;2023-04-08T11:23:55;20.20;;;13.95;;
78197;SDS011;67472;51.554;7.812;2023-04-08T11:26:40;20.55;;;15.50;;
78197;SDS011;67472;51.554;7.812;2023-04-08T11:29:26;20.05;;;15.93;;
78197;SDS011;67472;51.554;7.812;2023-04-08T11:32:11;20.17;;;14.95;;
78197;SDS011;67472;51.554;7.812;2023-04-08T11:34:58;21.48;;;14.55;;
78197;SDS011;67472;51.554;7.812;2023-04-08T11:37:44;19.23;;;14.93;;
78197;SDS011;67472;51.554;7.812;2023-04-08T11:40:31;17.58;;;14.02;;
78197;SDS011;67472;51.554;7.812;2023-04-08T11:43:16;20.27;;;14.52;;
78197;SDS011;67472;51.554;7.812;2023-04-08T11:46:10;21.42;;;15.45;;
78197;SDS011;67472;51.554;7.812;2023-04-08T11:49:03;22.02;;;15.35;;
78197;SDS011;67472;51.554;7.812;2023-04-08T11:51:54;18.88;;;15.55;;
78197;SDS011;67472;51.554;7.812;2023-04-08T11:54:43;20.25;;;13.73;;
78197;SDS011;67472;51.554;7.812;2023-04-08T11:57:28;18.58;;;14.30;;
78197;SDS011;67472;51.554;7.812;2023-04-08T12:00:13;20.27;;;15.02;;
78197;SDS011;67472;51.554;7.812;2023-04-08T12:02:58;19.55;;;13.70;;
78197;SDS011;67472;51.554;7.812;2023-04-08T12:05:43;18.85;;;13.95;;
78197;SDS011;67472;51.554;7.812;2023-04-08T12:08:30;18.75;;;13.15;;
78197;SDS011;67472;51.554;7.812;2023-04-08T12:11:14;16.95;;;13.27;;
78197;SDS011;67472;51.554;7.812;2023-04-08T12:14:00;18.50;;;13.98;;
78197;SDS011;67472;51.554;7.812;2023-04-08T12:16:45;19.42;;;13.98;;
78197;SDS011;67472;51.554;7.812;2023-04-08T12:19:30;17.98;;;14.05;;
78197;SDS011;67472;51.554;7.812;2023-04-08T12:22:15;17.55;;;14.23;;
78197;SDS011;67472;51.554;7.812;2023-04-08T12:25:00;18.58;;;13.85;;
78197;SDS011;67472;51.554;7.812;2023-04-08T12:27:48;16.55;;;13.20;;
78197;SDS011;67472;51.554;7.812;2023-04-08T12:30:33;20.50;;;14.18;;
78197;SDS011;67472;51.554;7.812;2023-04-08T12:33:18;19.05;;;14.48;;
78197;SDS011;67472;51.554;7.812;2023-04-08T12:36:03;16.70;;;13.77;;
78197;SDS011;67472;51.554;7.812;2023-04-08T12:38:48;16.67;;;13.68;;
78197;SDS011;67472;51.554;7.812;2023-04-08T12:41:33;17.58;;;13.70;;
78197;SDS011;67472;51.554;7.812;2023-04-08T12:44:18;21.55;;;15.13;;
78197;SDS011;67472;51.554;7.812;2023-04-08T12:47:03;20.45;;;16.00;;
78197;SDS011;67472;51.554;7.812;2023-04-08T12:49:48;16.77;;;13.85;;
78197;SDS011;67472;51.554;7.812;2023-04-08T12:52:33;18.92;;;14.73;;
78197;SDS011;67472;51.554;7.812;2023-04-08T12:55:18;20.35;;;15.35;;
78197;SDS011;67472;51.554;7.812;2023-04-08T12:58:03;20.25;;;15.05;;
78197;SDS011;67472;51.554;7.812;2023-04-08T13:00:49;20.13;;;15.68;;
78197;SDS011;67472;51.554;7.812;2023-04-08T13:03:34;19.67;;;15.73;;
78197;SDS011;67472;51.554;7.812;2023-04-08T13:06:19;19.90;;;16.10;;
78197;SDS011;67472;51.554;7.812;2023-04-08T13:09:04;23.48;;;17.55;;
78197;SDS011;67472;51.554;7.812;2023-04-08T13:11:49;21.95;;;17.38;;
78197;SDS011;67472;51.554;7.812;2023-04-08T13:14:34;22.92;;;18.90;;
78197;SDS011;67472;51.554;7.812;2023-04-08T13:17:20;24.13;;;18.55;;
78197;SDS011;67472;51.554;7.812;2023-04-08T13:20:06;25.05;;;18.70;;
78197;SDS011;67472;51.554;7.812;2023-04-08T13:22:52;21.83;;;16.63;;
78197;SDS011;67472;51.554;7.812;2023-04-08T13:25:37;26.10;;;19.30;;
78197;SDS011;67472;51.554;7.812;2023-04-08T13:28:22;22.92;;;18.65;;
78197;SDS011;67472;51.554;7.812;2023-04-08T13:31:07;24.55;;;18.48;;
78197;SDS011;67472;51.554;7.812;2023-04-08T13:33:52;22.20;;;18.30;;
78197;SDS011;67472;51.554;7.812;2023-04-08T13:36:37;21.48;;;17.67;;
78197;SDS011;67472;51.554;7.812;2023-04-08T13:39:22;23.58;;;18.48;;
78197;SDS011;67472;51.554;7.812;2023-04-08T13:42:07;23.67;;;18.38;;
78197;SDS011;67472;51.554;7.812;2023-04-08T13:44:52;23.95;;;18.02;;
78197;SDS011;67472;51.554;7.812;2023-04-08T13:47:38;24.10;;;19.33;;
78197;SDS011;67472;51.554;7.812;2023-04-08T13:50:23;27.65;;;20.13;;
78197;SDS011;67472;51.554;7.812;2023-04-08T13:53:07;24.05;;;19.02;;
78197;SDS011;67472;51.554;7.812;2023-04-08T13:55:53;28.15;;;19.55;;
78197;SDS011;67472;51.554;7.812;2023-04-08T13:58:39;24.67;;;18.95;;
78197;SDS011;67472;51.554;7.812;2023-04-08T14:01:24;25.77;;;19.65;;
78197;SDS011;67472;51.554;7.812;2023-04-08T14:04:09;24.30;;;19.48;;
78197;SDS011;67472;51.554;7.812;2023-04-08T14:06:55;25.48;;;20.00;;
78197;SDS011;67472;51.554;7.812;2023-04-08T14:09:41;27.52;;;20.80;;
78197;SDS011;67472;51.554;7.812;2023-04-08T14:12:26;27.30;;;19.75;;
78197;SDS011;67472;51.554;7.812;2023-04-08T14:15:14;29.63;;;19.58;;
78197;SDS011;67472;51.554;7.812;2023-04-08T14:18:00;27.23;;;19.52;;
78197;SDS011;67472;51.554;7.812;2023-04-08T14:20:45;26.20;;;19.33;;
78197;SDS011;67472;51.554;7.812;2023-04-08T14:23:30;26.45;;;20.55;;
78197;SDS011;67472;51.554;7.812;2023-04-08T14:26:15;25.77;;;19.40;;
78197;SDS011;67472;51.554;7.812;2023-04-08T14:29:04;24.90;;;19.52;;
78197;SDS011;67472;51.554;7.812;2023-04-08T14:31:50;24.15;;;18.70;;
78197;SDS011;67472;51.554;7.812;2023-04-08T14:34:35;24.38;;;18.13;;
78197;SDS011;67472;51.554;7.812;2023-04-08T14:37:20;23.08;;;17.02;;
78197;SDS011;67472;51.554;7.812;2023-04-08T14:40:06;22.42;;;16.73;;
78197;SDS011;67472;51.554;7.812;2023-04-08T14:42:51;20.02;;;16.35;;
78197;SDS011;67472;51.554;7.812;2023-04-08T14:45:36;20.85;;;16.60;;
78197;SDS011;67472;51.554;7.812;2023-04-08T14:48:21;21.35;;;15.50;;
78197;SDS011;67472;51.554;7.812;2023-04-08T14:51:09;20.65;;;16.33;;
78197;SDS011;67472;51.554;7.812;2023-04-08T14:53:54;20.48;;;14.80;;
78197;SDS011;67472;51.554;7.812;2023-04-08T14:56:39;19.17;;;15.60;;
78197;SDS011;67472;51.554;7.812;2023-04-08T14:59:24;20.23;;;14.98;;
78197;SDS011;67472;51.554;7.812;2023-04-08T15:02:09;19.92;;;15.50;;
78197;SDS011;67472;51.554;7.812;2023-04-08T15:04:54;21.10;;;16.23;;
78197;SDS011;67472;51.554;7.812;2023-04-08T15:07:39;18.58;;;15.10;;
78197;SDS011;67472;51.554;7.812;2023-04-08T15:10:25;23.27;;;17.60;;
78197;SDS011;67472;51.554;7.812;2023-04-08T15:13:11;21.83;;;17.08;;
78197;SDS011;67472;51.554;7.812;2023-04-08T15:15:56;20.45;;;16.25;;
78197;SDS011;67472;51.554;7.812;2023-04-08T15:18:41;23.15;;;18.13;;
78197;SDS011;67472;51.554;7.812;2023-04-08T15:21:26;20.98;;;16.58;;
78197;SDS011;67472;51.554;7.812;2023-04-08T15:24:11;22.38;;;16.75;;
78197;SDS011;67472;51.554;7.812;2023-04-08T15:26:56;21.52;;;16.83;;
78197;SDS011;67472;51.554;7.812;2023-04-08T15:29:41;19.75;;;15.63;;
78197;SDS011;67472;51.554;7.812;2023-04-08T15:32:26;22.20;;;16.75;;
78197;SDS011;67472;51.554;7.812;2023-04-08T15:35:11;18.73;;;15.75;;
78197;SDS011;67472;51.554;7.812;2023-04-08T15:37:56;22.17;;;17.55;;
78197;SDS011;67472;51.554;7.812;2023-04-08T15:40:41;21.55;;;17.13;;
78197;SDS011;67472;51.554;7.812;2023-04-08T15:43:26;21.60;;;16.48;;
78197;SDS011;67472;51.554;7.812;2023-04-08T15:46:20;22.05;;;17.27;;
78197;SDS011;67472;51.554;7.812;2023-04-08T15:49:05;20.15;;;16.25;;
78197;SDS011;67472;51.554;7.812;2023-04-08T15:51:50;20.33;;;15.70;;
78197;SDS011;67472;51.554;7.812;2023-04-08T15:54:36;20.50;;;16.10;;
78197;SDS011;67472;51.554;7.812;2023-04-08T15:57:21;25.23;;;17.67;;
78197;SDS011;67472;51.554;7.812;2023-04-08T16:00:10;23.23;;;16.80;;
78197;SDS011;67472;51.554;7.812;2023-04-08T16:02:58;21.63;;;16.98;;
78197;SDS011;67472;51.554;7.812;2023-04-08T16:05:43;20.33;;;16.05;;
78197;SDS011;67472;51.554;7.812;2023-04-08T16:08:28;22.75;;;17.55;;
78197;SDS011;67472;51.554;7.812;2023-04-08T16:11:15;27.98;;;19.05;;
78197;SDS011;67472;51.554;7.812;2023-04-08T16:14:00;25.55;;;18.20;;
78197;SDS011;67472;51.554;7.812;2023-04-08T16:16:46;22.42;;;16.70;;
78197;SDS011;67472;51.554;7.812;2023-04-08T16:19:30;24.67;;;17.48;;
78197;SDS011;67472;51.554;7.812;2023-04-08T16:22:16;24.50;;;18.17;;
78197;SDS011;67472;51.554;7.812;2023-04-08T16:25:01;24.10;;;17.52;;
78197;SDS011;67472;51.554;7.812;2023-04-08T16:27:49;23.95;;;16.48;;
78197;SDS011;67472;51.554;7.812;2023-04-08T16:30:34;22.00;;;16.98;;
78197;SDS011;67472;51.554;7.812;2023-04-08T16:33:22;22.92;;;17.27;;
78197;SDS011;67472;51.554;7.812;2023-04-08T16:36:13;22.17;;;16.77;;